EKYT/AAL METAR and TAF weather

Enter ICAO airport designator
Station Type Date Time Source
EKYT METAR 2019/06/17 12:50 UTC NOAA

EKYT 171250Z AUTO 25016KT 9999 FEW040/// BKN060/// 20/13 Q1019


Station Type Date Time Source
EKYT Decoded METAR 2019/06/17 12:50 UTC NOAA

Aalborg, Denmark (EKYT) 57-06N 009-51E 13M
Jun 17, 2019 - 08:50 AM EDT / 2019.06.17 1250 UTC
Wind: from the WSW (250 degrees) at 18 MPH (16 KT):0
Visibility: greater than 7 mile(s):0
Sky conditions: mostly cloudy
Temperature: 68 F (20 C)
Dew Point: 55 F (13 C)
Relative Humidity: 64%
Pressure (altimeter): 30.09 in. Hg (1019 hPa)
ob: EKYT 171250Z AUTO 25016KT 9999 FEW040/// BKN060/// 20/13 Q1019
cycle: 13

Station Type Date Time Source
EKYT TAF 2019/06/17 12:30 UTC NOAA

TAF EKYT 171119Z 1712/1812 23010KT 9999 SCT030
BECMG 1719/1722 16008KT
TEMPO 1801/1812 4000 SHRA BKN040CB PROB40 1803/1812 TS

Example: see airport list